createdAt,value
2022-11-22T00:01:02.213Z,5.99
2022-11-22T00:06:06.343Z,5.97
2022-11-22T00:11:10.538Z,5.97
2022-11-22T00:16:14.709Z,5.97
2022-11-22T00:21:18.849Z,5.98
2022-11-22T00:26:23.006Z,5.98
2022-11-22T00:31:27.167Z,6.00
2022-11-22T00:36:31.361Z,5.97
2022-11-22T00:41:35.525Z,5.96
2022-11-22T00:46:39.679Z,5.96
2022-11-22T00:51:43.836Z,5.95
2022-11-22T00:56:48.013Z,5.96
2022-11-22T01:01:52.143Z,6.00
2022-11-22T01:06:56.300Z,6.00
2022-11-22T01:12:00.510Z,6.03
2022-11-22T01:17:04.637Z,6.06
2022-11-22T01:22:08.784Z,6.08
2022-11-22T01:27:12.975Z,6.14
2022-11-22T01:32:17.135Z,6.13
2022-11-22T01:37:21.280Z,6.11
2022-11-22T01:42:25.444Z,6.07
2022-11-22T01:47:29.596Z,6.04
2022-11-22T01:52:33.770Z,6.04
2022-11-22T01:57:37.957Z,6.10
2022-11-22T02:02:42.132Z,6.11
2022-11-22T02:07:46.410Z,6.11
2022-11-22T02:12:50.450Z,6.06
2022-11-22T02:17:54.588Z,6.05
2022-11-22T02:22:58.748Z,6.09
2022-11-22T02:28:02.926Z,6.14
2022-11-22T02:33:07.093Z,6.20
2022-11-22T02:38:11.223Z,6.26
2022-11-22T02:43:15.567Z,6.29
2022-11-22T02:48:19.549Z,6.32
2022-11-22T02:53:23.761Z,6.33
2022-11-22T02:58:27.892Z,6.36
2022-11-22T03:03:32.057Z,6.32
2022-11-22T03:08:36.419Z,6.26
2022-11-22T03:13:40.429Z,6.23
2022-11-22T03:18:44.672Z,6.29
2022-11-22T03:23:46.813Z,6.36
2022-11-22T03:28:50.984Z,6.38
2022-11-22T03:33:55.252Z,6.39
2022-11-22T03:38:59.295Z,6.37
2022-11-22T03:44:03.490Z,6.31
2022-11-22T03:49:07.616Z,6.29
2022-11-22T03:54:11.797Z,6.20
2022-11-22T03:59:15.931Z,6.17
2022-11-22T04:04:20.156Z,6.13
2022-11-22T04:09:24.365Z,6.05
2022-11-22T04:14:28.532Z,5.97
2022-11-22T04:19:32.900Z,5.86
2022-11-22T04:24:36.784Z,5.81
2022-11-22T04:29:40.947Z,5.76
2022-11-22T04:34:45.108Z,5.71
2022-11-22T04:39:49.241Z,5.65
2022-11-22T04:44:53.428Z,5.65
2022-11-22T04:49:57.603Z,5.60
2022-11-22T04:55:01.784Z,5.56
2022-11-22T05:00:05.951Z,5.55
2022-11-22T05:05:10.072Z,5.57
2022-11-22T05:10:14.206Z,5.56
2022-11-22T05:15:18.405Z,5.46
2022-11-22T05:20:22.534Z,5.43
2022-11-22T05:25:26.735Z,5.38
2022-11-22T05:30:30.894Z,5.36
2022-11-22T05:35:35.012Z,5.32
2022-11-22T05:40:39.227Z,5.30
2022-11-22T05:45:43.372Z,5.26
2022-11-22T05:50:47.544Z,5.25
2022-11-22T05:55:51.727Z,5.22
2022-11-22T06:00:55.864Z,5.10
2022-11-22T06:06:00.034Z,5.05
2022-11-22T06:11:04.168Z,5.04
2022-11-22T06:16:08.373Z,5.01
2022-11-22T06:21:12.506Z,5.01
2022-11-22T06:26:16.700Z,4.98
2022-11-22T06:31:20.834Z,4.96
2022-11-22T06:36:24.991Z,4.89
2022-11-22T06:41:29.163Z,4.86
2022-11-22T06:46:33.331Z,4.93
2022-11-22T06:51:37.556Z,4.95
2022-11-22T06:56:41.675Z,4.99
2022-11-22T07:01:45.877Z,4.94
2022-11-22T07:06:49.977Z,4.94
2022-11-22T07:11:54.158Z,4.95
2022-11-22T07:16:58.349Z,4.92
2022-11-22T07:22:02.484Z,4.87
2022-11-22T07:27:06.650Z,4.90
2022-11-22T07:32:10.818Z,4.91
2022-11-22T07:37:14.972Z,4.99
2022-11-22T07:42:23.669Z,4.98
2022-11-22T07:47:23.345Z,5.00
2022-11-22T07:52:27.449Z,5.09
2022-11-22T07:57:31.623Z,5.16
2022-11-22T08:02:35.772Z,5.26
2022-11-22T08:07:40.080Z,5.26
2022-11-22T08:12:44.136Z,5.31
2022-11-22T08:17:48.279Z,5.33
2022-11-22T08:22:52.448Z,5.33
2022-11-22T08:27:56.613Z,5.35
2022-11-22T08:33:00.790Z,5.34
2022-11-22T08:38:04.966Z,5.39
2022-11-22T08:43:09.099Z,5.44
2022-11-22T08:48:17.667Z,5.46
2022-11-22T08:53:15.555Z,5.53
2022-11-22T08:58:19.695Z,5.65
2022-11-22T09:03:23.865Z,5.73
2022-11-22T09:08:30.174Z,5.82
2022-11-22T09:13:32.301Z,5.94
2022-11-22T09:18:36.332Z,5.96
2022-11-22T09:23:40.517Z,6.07
2022-11-22T09:28:44.662Z,6.12
2022-11-22T09:33:48.835Z,6.12
2022-11-22T09:38:53.015Z,6.18
2022-11-22T09:43:57.144Z,6.22
2022-11-22T09:49:01.302Z,6.36
2022-11-22T09:54:05.496Z,6.43
2022-11-22T09:59:09.676Z,6.55
2022-11-22T10:04:13.812Z,6.56
2022-11-22T10:09:17.956Z,6.60
2022-11-22T10:14:22.123Z,6.69
2022-11-22T10:19:26.269Z,6.82
2022-11-22T10:24:30.480Z,6.95
2022-11-22T10:29:34.649Z,7.05
2022-11-22T10:34:38.742Z,7.11
2022-11-22T10:39:42.913Z,7.05
2022-11-22T10:44:47.088Z,7.05
2022-11-22T10:49:51.297Z,7.03
2022-11-22T10:54:55.419Z,7.10
2022-11-22T10:59:59.576Z,7.12
2022-11-22T11:05:03.763Z,7.26
2022-11-22T11:10:13.598Z,7.24
2022-11-22T11:15:12.089Z,7.08
2022-11-22T11:20:16.270Z,6.97
2022-11-22T11:25:20.410Z,7.04
2022-11-22T11:30:24.598Z,7.11
2022-11-22T11:35:28.720Z,7.12
2022-11-22T11:40:32.899Z,7.18
2022-11-22T11:45:37.073Z,7.37
2022-11-22T11:50:41.206Z,7.44
2022-11-22T11:55:45.351Z,7.64
2022-11-22T12:00:49.543Z,7.75
2022-11-22T12:05:53.716Z,7.75
2022-11-22T12:10:57.853Z,7.77
2022-11-22T12:16:02.039Z,7.86
2022-11-22T12:21:06.215Z,8.14
2022-11-22T12:26:10.336Z,8.52
2022-11-22T12:31:15.425Z,8.72
2022-11-22T12:36:18.673Z,8.58
2022-11-22T12:41:22.815Z,8.73
2022-11-22T12:46:27.014Z,8.83
2022-11-22T12:51:31.159Z,8.54
2022-11-22T12:56:35.329Z,8.61
2022-11-22T13:01:39.552Z,8.57
2022-11-22T13:06:43.636Z,8.56
2022-11-22T13:11:47.792Z,8.42
2022-11-22T13:16:51.959Z,8.58
2022-11-22T13:21:56.150Z,8.32
2022-11-22T13:27:00.326Z,8.25
2022-11-22T13:32:04.478Z,8.16
2022-11-22T13:37:08.633Z,8.16
2022-11-22T13:42:12.792Z,7.99
2022-11-22T13:47:16.946Z,8.01
2022-11-22T13:52:21.099Z,7.97
2022-11-22T13:57:25.257Z,7.99
2022-11-22T14:02:29.469Z,7.98
2022-11-22T14:07:33.671Z,8.00
2022-11-22T14:12:37.741Z,7.91
2022-11-22T14:17:42.277Z,7.83
2022-11-22T14:22:44.186Z,7.83
2022-11-22T14:27:48.340Z,7.78
2022-11-22T14:32:52.506Z,7.76
2022-11-22T14:37:56.653Z,7.72
2022-11-22T14:43:00.852Z,7.69
2022-11-22T14:48:05.003Z,7.73
2022-11-22T14:53:07.268Z,7.69
2022-11-22T14:58:11.429Z,7.50
2022-11-22T15:03:15.593Z,7.38
2022-11-22T15:09:14.331Z,7.34
2022-11-22T15:13:23.931Z,7.30
2022-11-22T15:59:01.395Z,6.83
2022-11-22T16:04:05.538Z,6.75
2022-11-22T16:09:09.723Z,6.76
2022-11-22T16:14:13.865Z,6.81
2022-11-22T16:19:18.048Z,6.84
2022-11-22T16:24:22.201Z,6.94
2022-11-22T16:29:26.336Z,6.99
2022-11-22T16:34:30.510Z,7.04
2022-11-22T16:39:34.819Z,7.05
2022-11-22T16:44:38.826Z,7.04
2022-11-22T16:49:43.021Z,7.00
2022-11-22T16:54:47.140Z,6.99
2022-11-22T16:59:51.325Z,7.03
2022-11-22T17:04:55.474Z,7.04
2022-11-22T17:09:59.676Z,7.01
2022-11-22T17:15:03.807Z,6.98
2022-11-22T17:20:08.004Z,6.95
2022-11-22T17:25:12.136Z,6.86
2022-11-22T17:30:16.314Z,6.81
2022-11-22T17:35:20.467Z,6.78
2022-11-22T17:40:24.600Z,6.80
2022-11-22T17:45:28.798Z,6.81
2022-11-22T17:50:32.944Z,6.79
2022-11-22T17:56:08.565Z,6.73
2022-11-22T18:00:41.299Z,6.72
2022-11-22T18:05:45.434Z,6.73
2022-11-22T18:10:49.608Z,6.73
2022-11-22T18:15:57.340Z,6.72
2022-11-22T18:20:57.906Z,6.73
2022-11-22T18:26:38.227Z,6.72
2022-11-22T18:31:06.275Z,6.72
2022-11-22T18:36:49.463Z,6.73
2022-11-22T18:41:14.592Z,6.70
2022-11-22T18:46:19.012Z,6.67
2022-11-22T18:51:22.929Z,6.65
2022-11-22T18:56:27.083Z,6.66
2022-11-22T19:01:31.286Z,6.68
2022-11-22T19:06:35.452Z,6.69
2022-11-22T19:11:39.558Z,6.70
2022-11-22T19:16:43.706Z,6.72
2022-11-22T19:21:47.921Z,6.73
2022-11-22T19:26:52.051Z,6.72
2022-11-22T19:31:56.157Z,6.72
2022-11-22T19:37:00.344Z,6.72
2022-11-22T19:42:04.537Z,6.73
2022-11-22T19:47:08.680Z,6.72
2022-11-22T19:52:12.851Z,6.70
2022-11-22T19:57:17.010Z,6.74
2022-11-22T20:02:21.175Z,6.76
2022-11-22T20:07:25.380Z,6.74
2022-11-22T20:12:29.475Z,6.73
2022-11-22T20:17:33.686Z,6.71
2022-11-22T20:22:35.915Z,6.74
2022-11-22T20:27:40.061Z,6.71
2022-11-22T20:32:44.264Z,6.75
2022-11-22T20:37:48.395Z,6.79
2022-11-22T20:42:52.607Z,6.84
2022-11-22T20:47:56.730Z,6.89
2022-11-22T20:53:00.915Z,6.93
2022-11-22T20:58:05.045Z,6.98
2022-11-22T21:03:09.215Z,7.03
2022-11-22T21:08:13.380Z,7.07
2022-11-22T21:13:17.549Z,7.11
2022-11-22T21:18:25.678Z,7.07
2022-11-22T21:23:25.895Z,7.06
2022-11-22T21:28:30.027Z,7.10
2022-11-22T21:33:34.215Z,7.07
2022-11-22T21:38:38.364Z,7.09
2022-11-22T21:43:47.384Z,7.19
2022-11-22T21:48:46.654Z,7.26
2022-11-22T21:53:50.848Z,7.30
2022-11-22T21:58:55.001Z,7.27
2022-11-22T22:03:59.150Z,7.22
2022-11-22T22:09:03.321Z,7.20
2022-11-22T22:14:07.481Z,7.22
2022-11-22T22:19:11.669Z,7.25
2022-11-22T22:24:15.811Z,7.28
2022-11-22T22:29:19.968Z,7.27
2022-11-22T22:34:24.161Z,7.25
2022-11-22T22:39:28.562Z,7.29
2022-11-22T22:44:32.528Z,7.31
2022-11-22T22:49:36.646Z,7.29
2022-11-22T22:54:40.804Z,7.29
2022-11-22T22:59:44.939Z,7.25
2022-11-22T23:04:49.088Z,7.22
2022-11-22T23:09:53.296Z,7.22
2022-11-22T23:14:57.454Z,7.20
2022-11-22T23:20:01.591Z,7.18
2022-11-22T23:25:05.771Z,7.18
2022-11-22T23:30:09.932Z,7.16
2022-11-22T23:35:14.092Z,7.16
2022-11-22T23:40:18.273Z,7.17
2022-11-22T23:45:22.431Z,7.20
2022-11-22T23:50:26.564Z,7.20
2022-11-22T23:55:30.775Z,7.22
